Terminal Aerodrome Forecast
Issued by NWS

Home | Current Version | Previous Version | Text Only | Print | Product List | Glossary On
Versions: 1 2 3 4 5 6 7 8 9 10 11 12 13 14 15
000
FTUS45 KABQ 050532
TAFFMN
TAF
KFMN 050532Z 0506/0606 VRB05KT P6SM SCT200
     FM052100 28011KT P6SM FEW110 SCT200
     FM060200 VRB05KT P6SM SCT200=

USA.gov is the U.S. government's official web portal to all federal, state and local government web resources and services.